createdAt,value
2018-02-25T00:01:22.711Z,60.86
2018-02-25T00:03:50.254Z,58.75
2018-02-25T00:06:17.720Z,59.14
2018-02-25T00:08:45.181Z,58.63
2018-02-25T00:11:12.671Z,57.76
2018-02-25T00:13:40.142Z,57.47
2018-02-25T00:16:07.617Z,57.83
2018-02-25T00:18:35.139Z,57.97
2018-02-25T00:21:02.573Z,58.35
2018-02-25T00:23:30.140Z,58.39
2018-02-25T00:25:57.703Z,57.86
2018-02-25T00:28:25.295Z,58.53
2018-02-25T00:30:52.780Z,58.17
2018-02-25T00:33:20.320Z,58.06
2018-02-25T00:35:47.795Z,58.59
2018-02-25T00:38:15.270Z,58.39
2018-02-25T00:40:42.741Z,57.49
2018-02-25T00:43:10.242Z,58.37
2018-02-25T00:45:37.733Z,57.90
2018-02-25T00:48:05.232Z,57.66
2018-02-25T00:50:32.813Z,58.14
2018-02-25T00:53:00.385Z,58.40
2018-02-25T00:55:27.867Z,59.16
2018-02-25T00:57:55.317Z,59.06
2018-02-25T01:00:22.803Z,59.36
2018-02-25T01:02:50.293Z,60.24
2018-02-25T01:05:17.772Z,60.46
2018-02-25T01:07:45.265Z,60.79
2018-02-25T01:10:12.793Z,61.21
2018-02-25T01:12:40.274Z,61.72
2018-02-25T01:15:07.788Z,62.05
2018-02-25T01:17:35.264Z,62.13
2018-02-25T01:20:02.777Z,62.30
2018-02-25T01:22:30.265Z,62.32
2018-02-25T01:24:57.755Z,62.37
2018-02-25T01:27:25.283Z,62.51
2018-02-25T01:29:52.804Z,62.72
2018-02-25T01:32:20.361Z,62.88
2018-02-25T01:34:47.925Z,63.39
2018-02-25T01:37:15.435Z,63.40
2018-02-25T01:39:42.916Z,62.96
2018-02-25T01:42:10.418Z,63.06
2018-02-25T01:44:37.903Z,63.10
2018-02-25T01:47:05.413Z,63.54
2018-02-25T01:49:32.946Z,63.25
2018-02-25T01:52:00.501Z,63.77
2018-02-25T01:54:27.978Z,63.08
2018-02-25T01:56:55.557Z,63.37
2018-02-25T01:59:23.022Z,63.50
2018-02-25T02:01:50.501Z,63.07
2018-02-25T02:04:17.970Z,63.67
2018-02-25T02:06:45.484Z,63.99
2018-02-25T02:09:12.952Z,64.31
2018-02-25T02:11:40.429Z,64.82
2018-02-25T02:14:07.905Z,65.18
2018-02-25T02:16:35.417Z,65.08
2018-02-25T02:19:02.885Z,64.87
2018-02-25T02:21:30.448Z,64.91
2018-02-25T02:23:58.040Z,65.33
2018-02-25T02:26:25.512Z,66.08
2018-02-25T02:28:53.040Z,66.16
2018-02-25T02:31:20.533Z,66.11
2018-02-25T02:33:48.125Z,65.55
2018-02-25T02:36:15.596Z,66.29
2018-02-25T02:38:43.193Z,66.43
2018-02-25T02:41:10.659Z,67.23
2018-02-25T02:43:38.164Z,67.36
2018-02-25T02:46:05.637Z,66.97
2018-02-25T02:48:33.141Z,66.96
2018-02-25T02:51:00.619Z,67.32
2018-02-25T02:53:28.246Z,68.05
2018-02-25T02:55:55.735Z,68.48
2018-02-25T02:58:23.225Z,68.86
2018-02-25T03:00:50.775Z,68.93
2018-02-25T03:03:18.235Z,68.97
2018-02-25T03:05:45.729Z,69.47
2018-02-25T03:08:13.630Z,69.38
2018-02-25T03:10:41.109Z,69.52
2018-02-25T03:13:08.774Z,69.52
2018-02-25T03:15:36.354Z,69.52
2018-02-25T03:18:03.910Z,69.87
2018-02-25T03:20:31.605Z,69.98
2018-02-25T03:22:59.081Z,69.97
2018-02-25T03:25:26.549Z,70.42
2018-02-25T03:27:54.043Z,70.24
2018-02-25T03:30:21.601Z,70.28
2018-02-25T03:32:49.076Z,70.72
2018-02-25T03:35:16.606Z,70.55
2018-02-25T03:37:44.077Z,70.63
2018-02-25T03:40:11.542Z,70.46
2018-02-25T03:42:39.032Z,70.33
2018-02-25T03:45:06.512Z,70.73
2018-02-25T03:47:34.074Z,70.94
2018-02-25T03:50:01.544Z,71.21
2018-02-25T03:52:29.018Z,71.05
2018-02-25T03:54:56.487Z,70.73
2018-02-25T03:57:24.086Z,70.79
2018-02-25T03:59:51.565Z,71.03
2018-02-25T04:02:19.051Z,71.30
2018-02-25T04:04:46.573Z,71.55
2018-02-25T04:07:14.183Z,71.59
2018-02-25T04:09:41.660Z,71.56
2018-02-25T04:12:09.117Z,71.71
2018-02-25T04:14:36.589Z,71.84
2018-02-25T04:17:04.061Z,71.85
2018-02-25T04:19:31.600Z,71.79
2018-02-25T04:21:59.062Z,71.85
2018-02-25T04:24:26.539Z,71.93
2018-02-25T04:26:54.010Z,71.94
2018-02-25T04:29:21.515Z,72.02
2018-02-25T04:31:48.982Z,71.83
2018-02-25T04:34:16.530Z,72.01
2018-02-25T04:36:43.995Z,72.16
2018-02-25T04:39:11.648Z,72.09
2018-02-25T04:41:39.159Z,72.28
2018-02-25T04:44:06.639Z,72.30
2018-02-25T04:46:34.130Z,72.49
2018-02-25T04:49:01.594Z,72.37
2018-02-25T04:51:29.073Z,72.39
2018-02-25T04:53:56.533Z,72.52
2018-02-25T04:56:24.022Z,72.40
2018-02-25T04:58:51.485Z,72.43
2018-02-25T05:01:19.020Z,72.46
2018-02-25T05:03:46.532Z,72.65
2018-02-25T05:06:14.059Z,72.89
2018-02-25T05:08:41.535Z,73.15
2018-02-25T05:11:09.030Z,73.17
2018-02-25T05:13:36.503Z,73.13
2018-02-25T05:16:04.042Z,73.34
2018-02-25T05:18:31.517Z,73.49
2018-02-25T05:20:58.980Z,73.71
2018-02-25T05:23:26.473Z,73.87
2018-02-25T05:25:53.982Z,73.77
2018-02-25T05:28:21.528Z,73.54
2018-02-25T05:30:48.994Z,73.51
2018-02-25T05:33:16.462Z,73.06
2018-02-25T05:35:43.929Z,72.70
2018-02-25T05:38:11.587Z,73.15
2018-02-25T05:40:39.054Z,72.98
2018-02-25T05:43:06.633Z,73.43
2018-02-25T05:45:34.104Z,73.39
2018-02-25T05:48:01.565Z,73.16
2018-02-25T05:50:29.036Z,73.93
2018-02-25T05:52:56.612Z,74.31
2018-02-25T05:55:24.304Z,74.54
2018-02-25T05:57:51.771Z,74.04
2018-02-25T06:00:19.329Z,74.37
2018-02-25T06:02:46.797Z,74.31
2018-02-25T06:05:14.322Z,74.36
2018-02-25T06:07:41.778Z,73.98
2018-02-25T06:10:09.310Z,74.63
2018-02-25T06:12:36.882Z,74.44
2018-02-25T06:15:04.362Z,74.38
2018-02-25T06:17:31.839Z,74.02
2018-02-25T06:19:59.302Z,73.38
2018-02-25T06:22:26.799Z,72.84
2018-02-25T06:24:54.357Z,70.84
2018-02-25T06:27:21.910Z,68.14
2018-02-25T06:29:49.395Z,65.23
2018-02-25T06:32:16.861Z,63.39
2018-02-25T06:34:44.333Z,61.27
2018-02-25T06:37:11.797Z,60.03
2018-02-25T06:39:39.280Z,58.24
2018-02-25T06:42:06.848Z,58.31
2018-02-25T06:44:34.309Z,56.18
2018-02-25T06:47:01.761Z,56.19
2018-02-25T06:49:29.262Z,56.10
2018-02-25T06:51:56.729Z,55.58
2018-02-25T06:54:24.266Z,56.48
2018-02-25T06:56:51.733Z,56.51
2018-02-25T06:59:19.190Z,55.38
2018-02-25T07:01:46.710Z,55.18
2018-02-25T07:04:14.289Z,54.49
2018-02-25T07:06:41.778Z,53.88
2018-02-25T07:09:09.332Z,53.50
2018-02-25T07:11:36.806Z,52.97
2018-02-25T07:14:04.258Z,51.71
2018-02-25T07:16:31.762Z,51.85
2018-02-25T07:18:59.313Z,51.57
2018-02-25T07:21:26.797Z,50.33
2018-02-25T07:23:54.296Z,48.46
2018-02-25T07:26:22.606Z,48.56
2018-02-25T07:28:50.100Z,47.47
2018-02-25T07:31:17.577Z,47.18
2018-02-25T07:33:45.165Z,47.53
2018-02-25T07:36:12.767Z,46.66
2018-02-25T07:38:40.256Z,46.95
2018-02-25T07:41:07.725Z,45.51
2018-02-25T07:43:35.276Z,46.66
2018-02-25T07:46:02.824Z,44.92
2018-02-25T07:48:30.305Z,44.16
2018-02-25T07:50:57.915Z,42.18
2018-02-25T07:53:25.384Z,42.11
2018-02-25T07:55:52.927Z,40.37
2018-02-25T07:58:20.600Z,40.93
2018-02-25T08:00:48.102Z,40.14
2018-02-25T08:03:15.574Z,40.11
2018-02-25T08:05:43.032Z,39.47
2018-02-25T08:08:10.554Z,39.49
2018-02-25T08:10:38.079Z,39.26
2018-02-25T08:13:05.615Z,37.96
2018-02-25T08:15:33.245Z,38.12
2018-02-25T08:18:00.778Z,38.68
2018-02-25T08:20:28.241Z,37.15
2018-02-25T08:22:55.701Z,37.31
2018-02-25T08:25:23.515Z,37.75
2018-02-25T08:27:51.004Z,37.63
2018-02-25T08:30:18.528Z,37.92
2018-02-25T08:32:45.992Z,37.84
2018-02-25T08:35:13.471Z,36.96
2018-02-25T08:37:40.940Z,36.45
2018-02-25T08:40:08.447Z,35.87
2018-02-25T08:42:35.899Z,36.52
2018-02-25T08:45:03.361Z,34.81
2018-02-25T08:47:30.848Z,33.41
2018-02-25T08:49:58.317Z,34.52
2018-02-25T08:52:25.870Z,34.29
2018-02-25T08:54:53.421Z,34.47
2018-02-25T08:57:20.960Z,34.25
2018-02-25T08:59:48.412Z,33.74
2018-02-25T09:02:15.881Z,33.39
2018-02-25T09:04:43.438Z,33.20
2018-02-25T09:07:10.908Z,32.22
2018-02-25T09:09:38.373Z,32.88
2018-02-25T09:12:05.847Z,32.31
2018-02-25T09:14:33.298Z,31.75
2018-02-25T09:17:00.779Z,31.11
2018-02-25T09:19:28.243Z,31.81
2018-02-25T09:21:55.730Z,31.75
2018-02-25T09:24:23.192Z,31.85
2018-02-25T09:26:50.885Z,31.31
2018-02-25T09:29:18.333Z,30.32
2018-02-25T09:31:45.794Z,31.02
2018-02-25T09:34:13.290Z,31.66
2018-02-25T09:36:40.814Z,32.01
2018-02-25T09:39:08.308Z,32.42
2018-02-25T09:41:35.770Z,32.55
2018-02-25T09:44:03.236Z,31.81
2018-02-25T09:46:30.708Z,31.54
2018-02-25T09:48:58.331Z,31.65
2018-02-25T09:51:25.800Z,31.41
2018-02-25T09:53:53.280Z,31.03
2018-02-25T09:56:20.752Z,31.21
2018-02-25T09:58:48.325Z,30.82
2018-02-25T10:01:15.809Z,31.32
2018-02-25T10:03:43.357Z,31.42
2018-02-25T10:06:10.823Z,30.34
2018-02-25T10:08:38.298Z,30.33
2018-02-25T10:11:05.779Z,29.38
2018-02-25T10:13:33.244Z,29.31
2018-02-25T10:16:00.719Z,29.74
2018-02-25T10:18:28.197Z,30.29
2018-02-25T10:20:55.671Z,30.89
2018-02-25T10:23:23.130Z,31.56
2018-02-25T10:25:50.624Z,28.86
2018-02-25T10:28:18.394Z,28.11
2018-02-25T10:30:45.873Z,28.33
2018-02-25T10:33:13.342Z,28.54
2018-02-25T10:35:40.882Z,29.35
2018-02-25T10:38:08.419Z,28.38
2018-02-25T10:40:35.883Z,28.74
2018-02-25T10:43:03.355Z,28.14
2018-02-25T10:45:30.878Z,28.23
2018-02-25T10:47:58.348Z,27.94
2018-02-25T10:50:25.820Z,28.32
2018-02-25T10:52:53.286Z,27.89
2018-02-25T10:55:20.759Z,27.59
2018-02-25T10:57:48.225Z,28.32
2018-02-25T11:00:21.201Z,28.35
2018-02-25T11:02:48.678Z,28.25
2018-02-25T11:05:16.130Z,27.50
2018-02-25T11:07:43.634Z,27.45
2018-02-25T11:10:11.109Z,28.56
2018-02-25T11:12:38.598Z,26.95
2018-02-25T11:15:06.064Z,28.18
2018-02-25T11:17:33.623Z,27.79
2018-02-25T11:20:01.078Z,27.17
2018-02-25T11:22:28.537Z,27.75
2018-02-25T11:24:55.999Z,27.17
2018-02-25T11:27:23.476Z,26.92
2018-02-25T11:29:51.186Z,26.87
2018-02-25T11:32:18.664Z,27.12
2018-02-25T11:34:46.132Z,26.51
2018-02-25T11:37:13.697Z,26.68
2018-02-25T11:39:41.152Z,27.79
2018-02-25T11:42:08.634Z,27.33
2018-02-25T11:44:36.125Z,26.76
2018-02-25T11:47:03.603Z,26.94
2018-02-25T11:49:31.167Z,26.68
2018-02-25T11:51:58.637Z,26.60
2018-02-25T11:54:26.085Z,26.41
2018-02-25T11:56:53.595Z,27.27
2018-02-25T11:59:21.138Z,26.88
2018-02-25T12:01:49.459Z,27.35
2018-02-25T12:04:16.997Z,26.51
2018-02-25T12:06:44.490Z,26.02
2018-02-25T12:09:11.944Z,26.32
2018-02-25T12:11:39.616Z,25.63
2018-02-25T12:14:07.089Z,25.35
2018-02-25T12:16:34.568Z,25.51
2018-02-25T12:19:02.056Z,26.11
2018-02-25T12:21:29.593Z,27.68
2018-02-25T12:23:57.074Z,27.58
2018-02-25T12:26:24.521Z,27.67
2018-02-25T12:28:51.993Z,27.04
2018-02-25T12:31:19.490Z,25.96
2018-02-25T12:33:46.972Z,26.09
2018-02-25T12:36:15.297Z,25.48
2018-02-25T12:38:43.025Z,25.71
2018-02-25T12:41:10.489Z,26.42
2018-02-25T12:43:37.966Z,26.31
2018-02-25T12:46:05.483Z,25.77
2018-02-25T12:48:33.397Z,25.96
2018-02-25T12:51:00.891Z,26.30
2018-02-25T12:53:28.345Z,25.02
2018-02-25T12:55:56.029Z,26.92
2018-02-25T12:58:23.755Z,26.24
2018-02-25T13:00:51.245Z,26.00
2018-02-25T13:03:18.745Z,25.82
2018-02-25T13:05:46.226Z,26.29
2018-02-25T13:08:13.682Z,26.45
2018-02-25T13:10:41.154Z,26.11
2018-02-25T13:13:08.630Z,25.87
2018-02-25T13:15:36.207Z,26.04
2018-02-25T13:18:03.708Z,25.77
2018-02-25T13:20:31.173Z,26.22
2018-02-25T13:22:58.717Z,26.37
2018-02-25T13:25:28.974Z,26.07
2018-02-25T13:27:56.459Z,26.36
2018-02-25T13:30:23.917Z,26.72
2018-02-25T13:32:51.468Z,26.53
2018-02-25T13:35:18.957Z,26.24
2018-02-25T13:37:46.430Z,26.68
2018-02-25T13:40:13.898Z,25.77
2018-02-25T13:42:41.386Z,26.71
2018-02-25T13:45:08.837Z,27.25
2018-02-25T13:47:36.317Z,27.41
2018-02-25T13:50:03.790Z,26.26
2018-02-25T13:52:31.237Z,27.11
2018-02-25T13:54:58.700Z,27.68
2018-02-25T13:57:26.216Z,27.48
2018-02-25T13:59:53.685Z,26.15
2018-02-25T14:02:21.240Z,26.08
2018-02-25T14:04:48.717Z,27.42
2018-02-25T14:07:16.170Z,27.43
2018-02-25T14:09:43.732Z,26.99
2018-02-25T14:12:11.193Z,27.27
2018-02-25T14:14:38.682Z,27.15
2018-02-25T14:17:06.124Z,27.84
2018-02-25T14:19:33.638Z,28.54
2018-02-25T14:22:01.101Z,29.65
2018-02-25T14:24:28.608Z,29.52
2018-02-25T14:26:56.048Z,29.00
2018-02-25T14:29:23.622Z,29.04
2018-02-25T14:31:51.129Z,28.78
2018-02-25T14:34:18.594Z,29.53
2018-02-25T14:36:46.124Z,28.54
2018-02-25T14:39:13.576Z,29.12
2018-02-25T14:41:41.043Z,27.98
2018-02-25T14:44:08.530Z,28.40
2018-02-25T14:46:36.102Z,27.84
2018-02-25T14:49:03.552Z,28.95
2018-02-25T14:51:31.046Z,29.32
2018-02-25T14:53:58.618Z,30.14
2018-02-25T14:56:26.184Z,29.11
2018-02-25T14:58:53.662Z,29.42
2018-02-25T15:01:21.133Z,29.38
2018-02-25T15:03:48.599Z,30.45
2018-02-25T15:06:16.089Z,30.94
2018-02-25T15:08:43.566Z,31.70
2018-02-25T15:11:11.040Z,31.96
2018-02-25T15:13:38.517Z,32.09
2018-02-25T15:16:05.978Z,32.75
2018-02-25T15:18:33.476Z,33.35
2018-02-25T15:21:00.929Z,33.02
2018-02-25T15:23:28.472Z,33.52
2018-02-25T15:25:55.937Z,33.72
2018-02-25T15:28:23.490Z,33.96
2018-02-25T15:30:50.954Z,34.13
2018-02-25T15:33:18.463Z,34.57
2018-02-25T15:35:45.930Z,34.35
2018-02-25T15:38:13.445Z,35.46
2018-02-25T15:40:41.056Z,36.21
2018-02-25T15:43:08.471Z,36.83
2018-02-25T15:45:35.949Z,37.68
2018-02-25T15:48:03.506Z,37.34
2018-02-25T15:50:30.983Z,38.16
2018-02-25T15:52:58.448Z,37.79
2018-02-25T15:55:25.917Z,38.01
2018-02-25T15:57:53.484Z,37.47
2018-02-25T16:00:21.110Z,38.11
2018-02-25T16:02:49.362Z,37.95
2018-02-25T16:05:16.861Z,38.60
2018-02-25T16:07:44.352Z,38.89
2018-02-25T16:10:11.945Z,38.65
2018-02-25T16:12:39.419Z,39.22
2018-02-25T16:15:06.891Z,38.74
2018-02-25T16:17:34.557Z,39.25
2018-02-25T16:20:02.022Z,39.80
2018-02-25T16:22:29.498Z,39.86
2018-02-25T16:24:56.952Z,39.28
2018-02-25T16:27:24.424Z,39.93
2018-02-25T16:29:51.916Z,40.10
2018-02-25T16:32:19.480Z,39.92
2018-02-25T16:34:47.049Z,40.18
2018-02-25T16:37:14.527Z,40.47
2018-02-25T16:39:41.991Z,40.70
2018-02-25T16:42:09.461Z,40.57
2018-02-25T16:44:36.977Z,41.16
2018-02-25T16:47:04.526Z,41.33
2018-02-25T16:49:32.081Z,42.60
2018-02-25T16:51:59.536Z,42.31
2018-02-25T16:54:27.037Z,42.02
2018-02-25T16:56:54.555Z,42.19
2018-02-25T16:59:22.075Z,42.77
2018-02-25T17:01:49.549Z,42.65
2018-02-25T17:04:17.037Z,43.16
2018-02-25T17:06:44.502Z,43.44
2018-02-25T17:09:11.970Z,43.55
2018-02-25T17:11:39.424Z,43.83
2018-02-25T17:14:06.997Z,43.94
2018-02-25T17:16:34.488Z,44.60
2018-02-25T17:19:01.969Z,44.59
2018-02-25T17:21:29.586Z,44.93
2018-02-25T17:23:57.087Z,44.57
2018-02-25T17:26:24.668Z,44.75
2018-02-25T17:28:52.135Z,45.03
2018-02-25T17:31:20.466Z,45.26
2018-02-25T17:33:48.041Z,45.43
2018-02-25T17:36:15.593Z,45.97
2018-02-25T17:38:43.062Z,45.90
2018-02-25T17:41:10.533Z,46.39
2018-02-25T17:43:38.081Z,46.33
2018-02-25T17:46:05.550Z,46.50
2018-02-25T17:48:33.003Z,46.81
2018-02-25T17:51:00.475Z,47.50
2018-02-25T17:53:27.935Z,47.83
2018-02-25T17:55:55.551Z,47.53
2018-02-25T17:58:22.968Z,48.10
2018-02-25T18:00:50.491Z,47.97
2018-02-25T18:03:18.102Z,48.03
2018-02-25T18:05:45.566Z,47.50
2018-02-25T18:08:13.043Z,47.60
2018-02-25T18:10:40.519Z,47.81
2018-02-25T18:13:08.014Z,47.28
2018-02-25T18:15:35.471Z,56.77
2018-02-25T18:18:02.990Z,46.63
2018-02-25T18:20:30.497Z,53.11
2018-02-25T18:22:58.037Z,48.49
2018-02-25T18:25:25.611Z,48.12
2018-02-25T18:27:53.163Z,52.30
2018-02-25T18:30:20.645Z,42.91
2018-02-25T18:32:48.116Z,44.13
2018-02-25T18:35:15.638Z,45.26
2018-02-25T18:37:43.066Z,45.56
2018-02-25T18:40:10.538Z,45.83
2018-02-25T18:42:37.994Z,46.14
2018-02-25T18:45:05.475Z,46.49
2018-02-25T18:47:32.949Z,46.33
2018-02-25T18:50:00.508Z,46.92
2018-02-25T18:52:27.972Z,46.57
2018-02-25T18:54:55.471Z,46.78
2018-02-25T18:57:23.028Z,46.93
2018-02-25T18:59:50.607Z,46.74
2018-02-25T19:02:18.189Z,46.95
2018-02-25T19:04:45.749Z,47.57
2018-02-25T19:07:13.218Z,47.86
2018-02-25T19:09:40.737Z,47.58
2018-02-25T19:12:08.213Z,47.83
2018-02-25T19:14:35.682Z,47.54
2018-02-25T19:17:03.256Z,48.19
2018-02-25T19:19:30.773Z,48.07
2018-02-25T19:21:58.347Z,48.66
2018-02-25T19:24:25.828Z,48.34
2018-02-25T19:26:53.340Z,48.38
2018-02-25T19:29:20.809Z,49.54
2018-02-25T19:31:48.375Z,49.86
2018-02-25T19:34:15.858Z,50.12
2018-02-25T19:36:49.133Z,50.56
2018-02-25T19:39:22.206Z,50.44
2018-02-25T19:41:54.101Z,50.98
2018-02-25T19:44:21.611Z,51.13
2018-02-25T19:46:49.086Z,51.04
2018-02-25T19:49:16.572Z,51.17
2018-02-25T19:51:44.065Z,51.92
2018-02-25T19:54:11.559Z,51.84
2018-02-25T19:56:39.147Z,52.54
2018-02-25T19:59:06.786Z,52.66
2018-02-25T20:01:34.361Z,52.73
2018-02-25T20:04:01.845Z,53.10
2018-02-25T20:06:29.415Z,53.32
2018-02-25T20:08:56.901Z,53.20
2018-02-25T20:11:24.404Z,53.75
2018-02-25T20:13:51.911Z,54.09
2018-02-25T20:16:19.585Z,53.99
2018-02-25T20:18:47.112Z,54.44
2018-02-25T20:21:14.600Z,54.23
2018-02-25T20:23:42.052Z,54.85
2018-02-25T20:26:09.571Z,55.59
2018-02-25T20:28:37.047Z,55.11
2018-02-25T20:31:04.629Z,55.93
2018-02-25T20:33:32.199Z,56.59
2018-02-25T20:35:59.691Z,56.40
2018-02-25T20:38:27.162Z,56.92
2018-02-25T20:40:54.633Z,57.05
2018-02-25T20:43:22.177Z,57.51
2018-02-25T20:45:49.665Z,58.11
2018-02-25T20:48:17.157Z,57.40
2018-02-25T20:50:44.627Z,57.20
2018-02-25T20:53:12.174Z,57.43
2018-02-25T20:55:39.643Z,58.10
2018-02-25T20:58:07.113Z,57.63
2018-02-25T21:00:34.685Z,57.52
2018-02-25T21:03:02.249Z,57.91
2018-02-25T21:05:29.718Z,57.81
2018-02-25T21:07:57.592Z,58.33
2018-02-25T21:10:25.081Z,58.75
2018-02-25T21:12:52.699Z,58.83
2018-02-25T21:15:20.185Z,58.80
2018-02-25T21:17:47.672Z,58.95
2018-02-25T21:20:15.137Z,59.40
2018-02-25T21:22:42.614Z,59.00
2018-02-25T21:25:10.106Z,59.17
2018-02-25T21:27:37.560Z,59.46
2018-02-25T21:30:05.051Z,59.66
2018-02-25T21:32:32.529Z,60.03
2018-02-25T21:35:00.083Z,59.92
2018-02-25T21:37:27.546Z,59.84
2018-02-25T21:39:55.085Z,60.02
2018-02-25T21:42:22.564Z,60.62
2018-02-25T21:44:50.069Z,59.84
2018-02-25T21:47:17.646Z,61.12
2018-02-25T21:49:45.215Z,60.48
2018-02-25T21:52:12.782Z,61.24
2018-02-25T21:54:46.049Z,60.99
2018-02-25T21:57:19.208Z,61.80
2018-02-25T21:59:52.390Z,61.97
2018-02-25T22:02:25.596Z,61.26
2018-02-25T22:04:53.127Z,61.75
2018-02-25T22:07:20.632Z,62.18
2018-02-25T22:09:48.128Z,61.48
2018-02-25T22:12:15.698Z,61.96
2018-02-25T22:14:43.163Z,61.87
2018-02-25T22:17:10.761Z,62.11
2018-02-25T22:19:38.321Z,61.88
2018-02-25T22:22:05.796Z,61.52
2018-02-25T22:24:33.358Z,61.99
2018-02-25T22:27:00.843Z,61.19
2018-02-25T22:29:28.445Z,61.88
2018-02-25T22:31:55.950Z,62.15
2018-02-25T22:34:23.438Z,62.16
2018-02-25T22:36:50.932Z,62.01
2018-02-25T22:39:18.475Z,62.36
2018-02-25T22:41:45.943Z,63.06
2018-02-25T22:44:13.443Z,63.39
2018-02-25T22:46:40.921Z,63.44
2018-02-25T22:49:08.474Z,63.72
2018-02-25T22:51:35.963Z,63.65
2018-02-25T22:54:03.575Z,63.47
2018-02-25T22:56:31.039Z,63.74
2018-02-25T22:58:58.585Z,63.25
2018-02-25T23:01:26.169Z,63.41
2018-02-25T23:03:53.749Z,63.74
2018-02-25T23:06:21.238Z,63.37
2018-02-25T23:08:48.962Z,63.33
2018-02-25T23:11:16.433Z,63.67
2018-02-25T23:13:43.969Z,63.55
2018-02-25T23:16:11.437Z,63.50
2018-02-25T23:18:38.926Z,63.06
2018-02-25T23:21:06.404Z,62.82
2018-02-25T23:23:33.877Z,62.69
2018-02-25T23:26:01.370Z,62.77
2018-02-25T23:28:28.845Z,62.48
2018-02-25T23:30:56.355Z,62.24
2018-02-25T23:33:23.851Z,61.92
2018-02-25T23:35:51.341Z,62.04
2018-02-25T23:38:18.900Z,61.90
2018-02-25T23:40:46.394Z,62.62
2018-02-25T23:43:13.864Z,63.14
2018-02-25T23:45:41.340Z,63.66
2018-02-25T23:48:08.897Z,64.02
2018-02-25T23:50:36.371Z,64.41
2018-02-25T23:53:03.858Z,64.71
2018-02-25T23:55:31.407Z,65.27
2018-02-25T23:57:58.888Z,65.50
